Millersville, MD (21108)

11:55 AM EDT on March 30, 2017 (GMT -0400)
KP4IP-WX | | Change Station

Elev 116 ft 39.11 °N, 76.63 °W | Updated 2 seconds ago

Overcast
Overcast
46.1 °F
Feels Like 46.1 °F
N
2.0
Wind Variable Wind from ENE

Today
High -- | Low -- °F
--% Chance of Precip.
Yesterday
High -- | Low -- °F
Precip. -- in
Pressure 30.26 in
Visibility 10.0 miles
Clouds Overcast 6000 ft
Dew Point 32.3 °F
Humidity 58%
Rainfall 0.00 in
Snow Depth Not available.
6:53 AM 7:28 PM
Waxing Crescent, 9% visible
METAR KFME 301539Z AUTO 12004KT 10SM OVC060 07/M01 A3026 RMK AO1
Pressure 30.26 in
Visibility 10.0 miles
Clouds Overcast 6000 ft
Dew Point 32.3 °F
Humidity 58%
Rainfall 0.00 in
Snow Depth Not available.
6:53 AM 7:28 PM
Waxing Crescent, 9% visible
METAR KFME 301539Z AUTO 12004KT 10SM OVC060 07/M01 A3026 RMK AO1

Get Severe Weather Alerts

Thanks for signing up!

Be on the lookout for a verification email in your inbox.

You'll start receiving the daily forecast at 8 AM.

×

10-Day Weather Forecast

Almanac

Astronomy

Mar. 30, 2017 Rise Set
Actual Time
Civil Twilight
Nautical Twilight
Astronomical Twilight
Moon
Length of Visible Light
Length of Day
Tomorrow will be .
, % of the Moon is Illuminated

Today's Extremes

State Highs State Lows

Community

WunderPhotos

Upload Photos

1,962,540 photos uploaded!

WunderBlog® & News

Nearby

Air Quality

  Air Quality AQ Index Pollutant
Not available.

Snow Depth

Station Depth Elevation

Earthquake Activity

City Distance Mag. Time & Date
Minimum magnitude displayed is 2.5.

Earthquake Activity

City Distance Mag. Time & Date
Minimum magnitude displayed is 2.5.

Coastal Water Temperatures

Place Temperature

Stations

Nearby Weather Stations

Station Location Temp. Windchill Dew Point Humidity Wind Precip. Elev Updated Type
                   

Watches & Warnings

There are currently no watches in effect.